createdAt,value
2018-04-07T00:00:40.065Z,24.50
2018-04-07T00:03:08.494Z,27.10
2018-04-07T00:05:36.901Z,24.23
2018-04-07T00:08:05.338Z,27.57
2018-04-07T00:10:33.791Z,28.93
2018-04-07T00:13:02.224Z,29.73
2018-04-07T00:15:30.669Z,28.23
2018-04-07T00:17:59.135Z,30.23
2018-04-07T00:20:27.546Z,25.27
2018-04-07T00:22:56.013Z,24.30
2018-04-07T00:25:24.405Z,27.17
2018-04-07T00:27:52.844Z,27.57
2018-04-07T00:30:21.294Z,32.60
2018-04-07T00:32:49.773Z,31.47
2018-04-07T00:35:18.278Z,27.20
2018-04-07T00:37:46.752Z,22.93
2018-04-07T00:40:15.173Z,26.43
2018-04-07T00:42:43.662Z,31.97
2018-04-07T00:45:12.081Z,25.27
2018-04-07T00:47:40.482Z,24.77
2018-04-07T00:50:08.946Z,26.20
2018-04-07T00:52:49.175Z,27.13
2018-04-07T00:55:17.661Z,25.57
2018-04-07T00:57:46.120Z,26.07
2018-04-07T01:00:14.546Z,27.80
2018-04-07T01:02:42.951Z,26.77
2018-04-07T01:05:11.340Z,20.63
2018-04-07T01:07:39.760Z,24.90
2018-04-07T01:10:08.173Z,25.33
2018-04-07T01:12:36.632Z,23.83
2018-04-07T01:15:05.051Z,17.93
2018-04-07T01:17:33.511Z,22.17
2018-04-07T01:20:01.899Z,20.23
2018-04-07T01:22:30.289Z,20.20
2018-04-07T01:24:58.772Z,24.03
2018-04-07T01:27:27.145Z,20.80
2018-04-07T01:29:55.640Z,17.73
2018-04-07T01:32:24.028Z,19.77
2018-04-07T01:34:52.430Z,18.13
2018-04-07T01:37:20.808Z,23.87
2018-04-07T01:39:49.311Z,19.77
2018-04-07T01:42:17.737Z,18.73
2018-04-07T01:44:46.205Z,18.43
2018-04-07T01:47:14.652Z,18.10
2018-04-07T01:49:43.059Z,18.00
2018-04-07T01:52:11.496Z,15.13
2018-04-07T01:54:39.967Z,17.67
2018-04-07T01:57:08.360Z,15.33
2018-04-07T01:59:36.813Z,19.03
2018-04-07T02:02:05.267Z,16.33
2018-04-07T02:04:33.717Z,15.23
2018-04-07T02:07:02.136Z,17.83
2018-04-07T02:09:30.598Z,16.90
2018-04-07T02:11:59.037Z,18.03
2018-04-07T02:14:27.482Z,16.50
2018-04-07T02:16:55.933Z,18.40
2018-04-07T02:19:24.348Z,13.67
2018-04-07T02:21:52.810Z,17.73
2018-04-07T02:24:21.251Z,15.30
2018-04-07T02:26:49.669Z,16.00
2018-04-07T02:29:18.065Z,18.13
2018-04-07T02:31:46.491Z,21.20
2018-04-07T02:34:14.957Z,18.10
2018-04-07T02:36:43.393Z,15.73
2018-04-07T02:39:11.815Z,19.57
2018-04-07T02:41:40.249Z,17.13
2018-04-07T02:44:08.669Z,20.37
2018-04-07T02:46:37.072Z,19.67
2018-04-07T02:49:05.497Z,18.43
2018-04-07T02:51:33.988Z,18.87
2018-04-07T02:54:02.393Z,18.13
2018-04-07T02:56:30.837Z,18.63
2018-04-07T02:58:59.229Z,19.73
2018-04-07T03:01:27.714Z,18.73
2018-04-07T03:03:56.125Z,18.20
2018-04-07T03:06:24.581Z,19.10
2018-04-07T03:08:53.055Z,22.87
2018-04-07T03:11:21.445Z,20.63
2018-04-07T03:13:49.899Z,18.80
2018-04-07T03:16:18.335Z,20.57
2018-04-07T03:18:46.755Z,23.63
2018-04-07T03:21:15.181Z,22.30
2018-04-07T03:23:43.651Z,18.90
2018-04-07T03:26:12.098Z,21.10
2018-04-07T03:28:40.606Z,16.13
2018-04-07T03:31:09.075Z,17.33
2018-04-07T03:33:37.548Z,19.43
2018-04-07T03:36:05.965Z,19.87
2018-04-07T03:38:34.399Z,17.30
2018-04-07T03:41:02.783Z,18.50
2018-04-07T03:43:31.221Z,15.10
2018-04-07T03:45:59.642Z,19.17
2018-04-07T03:48:28.125Z,17.57
2018-04-07T03:50:56.609Z,16.60
2018-04-07T03:53:25.114Z,17.07
2018-04-07T03:55:53.534Z,19.83
2018-04-07T03:58:21.918Z,15.67
2018-04-07T04:00:50.365Z,17.77
2018-04-07T04:03:18.798Z,17.97
2018-04-07T04:05:47.253Z,18.27
2018-04-07T04:08:15.700Z,17.73
2018-04-07T04:10:44.097Z,16.47
2018-04-07T04:13:12.505Z,19.30
2018-04-07T04:15:40.893Z,18.57
2018-04-07T04:18:09.317Z,16.53
2018-04-07T04:20:37.937Z,15.67
2018-04-07T04:23:06.331Z,19.10
2018-04-07T04:25:34.750Z,20.87
2018-04-07T04:28:03.158Z,17.53
2018-04-07T04:30:31.933Z,23.50
2018-04-07T04:33:00.366Z,17.67
2018-04-07T04:35:28.815Z,17.23
2018-04-07T04:37:57.278Z,19.57
2018-04-07T04:40:25.657Z,22.63
2018-04-07T04:42:54.099Z,14.90
2018-04-07T04:45:22.550Z,15.60
2018-04-07T04:47:50.993Z,16.37
2018-04-07T04:50:19.392Z,18.53
2018-04-07T04:52:47.922Z,17.33
2018-04-07T04:55:16.345Z,16.50
2018-04-07T04:57:44.824Z,16.30
2018-04-07T05:00:13.249Z,19.80
2018-04-07T05:02:41.682Z,17.77
2018-04-07T05:05:10.082Z,15.23
2018-04-07T05:07:38.536Z,13.17
2018-04-07T05:10:06.941Z,14.97
2018-04-07T05:12:35.418Z,14.87
2018-04-07T05:15:03.900Z,15.17
2018-04-07T05:17:32.341Z,16.23
2018-04-07T05:20:00.753Z,16.47
2018-04-07T05:22:29.178Z,16.80
2018-04-07T05:24:57.572Z,16.17
2018-04-07T05:27:26.012Z,15.97
2018-04-07T05:29:54.419Z,14.53
2018-04-07T05:32:22.851Z,15.97
2018-04-07T05:34:51.320Z,16.23
2018-04-07T05:37:19.713Z,17.83
2018-04-07T05:39:48.157Z,14.50
2018-04-07T05:42:16.622Z,12.37
2018-04-07T05:44:45.022Z,16.73
2018-04-07T05:47:13.541Z,17.27
2018-04-07T05:49:41.949Z,12.50
2018-04-07T05:52:10.410Z,13.07
2018-04-07T05:54:38.882Z,13.90
2018-04-07T05:57:07.333Z,13.20
2018-04-07T05:59:35.764Z,14.07
2018-04-07T06:02:04.196Z,16.10
2018-04-07T06:04:32.583Z,10.90
2018-04-07T06:07:00.976Z,11.47
2018-04-07T06:09:29.363Z,12.33
2018-04-07T06:11:57.792Z,13.23
2018-04-07T06:14:26.284Z,12.60
2018-04-07T06:16:54.703Z,11.47
2018-04-07T06:19:23.121Z,8.87
2018-04-07T06:21:51.523Z,11.43
2018-04-07T06:24:19.960Z,11.63
2018-04-07T06:26:48.391Z,14.77
2018-04-07T06:29:17.127Z,10.47
2018-04-07T06:31:45.532Z,14.60
2018-04-07T06:34:13.940Z,13.33
2018-04-07T06:36:42.534Z,10.10
2018-04-07T06:39:10.938Z,11.97
2018-04-07T06:41:39.348Z,10.60
2018-04-07T06:44:07.788Z,11.70
2018-04-07T06:46:36.210Z,13.27
2018-04-07T06:49:04.636Z,8.70
2018-04-07T06:51:33.228Z,9.27
2018-04-07T06:54:01.612Z,10.17
2018-04-07T06:56:30.002Z,11.33
2018-04-07T06:58:58.878Z,11.10
2018-04-07T07:01:27.272Z,8.13
2018-04-07T07:03:55.657Z,10.70
2018-04-07T07:06:24.367Z,11.30
2018-04-07T07:08:52.826Z,9.47
2018-04-07T07:11:21.224Z,8.97
2018-04-07T07:13:50.019Z,10.83
2018-04-07T07:16:18.447Z,9.73
2018-04-07T07:18:46.886Z,10.90
2018-04-07T07:21:15.334Z,10.73
2018-04-07T07:23:43.742Z,11.00
2018-04-07T07:26:12.173Z,7.97
2018-04-07T07:28:40.616Z,10.27
2018-04-07T07:31:09.105Z,11.83
2018-04-07T07:33:37.531Z,10.87
2018-04-07T07:36:05.934Z,9.30
2018-04-07T07:38:34.404Z,16.37
2018-04-07T07:41:02.834Z,13.80
2018-04-07T07:43:31.236Z,9.93
2018-04-07T07:45:59.676Z,10.80
2018-04-07T07:48:28.662Z,11.03
2018-04-07T07:50:57.226Z,14.00
2018-04-07T07:53:25.898Z,10.53
2018-04-07T07:55:54.339Z,9.77
2018-04-07T07:58:22.748Z,12.03
2018-04-07T08:00:51.189Z,16.63
2018-04-07T08:03:19.660Z,12.57
2018-04-07T08:05:48.174Z,10.77
2018-04-07T08:08:17.302Z,12.40
2018-04-07T08:10:46.657Z,8.47
2018-04-07T08:13:15.110Z,12.03
2018-04-07T08:15:43.721Z,10.87
2018-04-07T08:18:12.123Z,9.87
2018-04-07T08:20:40.525Z,8.70
2018-04-07T08:23:09.015Z,9.50
2018-04-07T08:25:37.428Z,14.43
2018-04-07T08:28:06.000Z,11.50
2018-04-07T08:30:34.410Z,13.57
2018-04-07T08:33:02.805Z,11.67
2018-04-07T08:35:31.238Z,10.63
2018-04-07T08:37:59.664Z,16.87
2018-04-07T08:40:28.119Z,12.20
2018-04-07T08:42:56.568Z,11.23
2018-04-07T08:45:25.057Z,10.73
2018-04-07T08:47:53.461Z,11.27
2018-04-07T08:50:21.916Z,13.13
2018-04-07T08:55:25.097Z,11.00
2018-04-07T08:57:53.509Z,19.30
2018-04-07T09:00:21.977Z,11.77
2018-04-07T09:02:50.362Z,14.67
2018-04-07T09:05:18.766Z,15.23
2018-04-07T09:07:47.239Z,13.13
2018-04-07T09:10:16.531Z,12.20
2018-04-07T09:12:45.007Z,9.93
2018-04-07T09:15:13.412Z,10.10
2018-04-07T09:17:41.881Z,11.80
2018-04-07T09:20:10.280Z,9.87
2018-04-07T09:22:38.653Z,9.93
2018-04-07T09:25:08.208Z,9.17
2018-04-07T09:27:36.590Z,12.07
2018-04-07T09:30:05.215Z,11.53
2018-04-07T09:32:33.602Z,17.97
2018-04-07T09:35:02.054Z,10.67
2018-04-07T09:37:30.552Z,9.80
2018-04-07T09:39:58.973Z,10.60
2018-04-07T09:42:27.520Z,10.53
2018-04-07T09:44:55.998Z,20.50
2018-04-07T09:47:24.481Z,11.13
2018-04-07T09:49:52.908Z,8.77
2018-04-07T09:52:21.282Z,9.63
2018-04-07T09:54:49.658Z,7.80
2018-04-07T09:57:18.073Z,10.57
2018-04-07T09:59:46.561Z,12.00
2018-04-07T10:02:19.940Z,9.07
2018-04-07T10:04:48.495Z,13.30
2018-04-07T10:07:16.964Z,13.43
2018-04-07T10:09:45.483Z,11.03
2018-04-07T10:12:13.866Z,8.77
2018-04-07T10:14:42.316Z,10.77
2018-04-07T10:17:10.710Z,10.10
2018-04-07T10:19:39.164Z,13.23
2018-04-07T10:22:07.577Z,8.13
2018-04-07T10:24:36.007Z,8.20
2018-04-07T10:27:04.457Z,11.33
2018-04-07T10:29:32.851Z,8.07
2018-04-07T10:32:01.415Z,9.13
2018-04-07T10:34:30.434Z,9.70
2018-04-07T10:36:58.827Z,12.80
2018-04-07T10:39:27.218Z,8.73
2018-04-07T10:41:55.649Z,12.33
2018-04-07T10:44:24.100Z,16.07
2018-04-07T10:46:52.481Z,10.77
2018-04-07T10:49:20.888Z,9.13
2018-04-07T10:51:49.313Z,7.67
2018-04-07T10:54:17.757Z,10.33
2018-04-07T10:56:46.351Z,8.40
2018-04-07T10:59:15.055Z,10.43
2018-04-07T11:01:43.472Z,7.60
2018-04-07T11:04:11.848Z,8.00
2018-04-07T11:06:40.273Z,7.53
2018-04-07T11:09:08.665Z,7.77
2018-04-07T11:11:37.142Z,16.57
2018-04-07T11:14:05.614Z,10.60
2018-04-07T11:16:34.019Z,9.10
2018-04-07T11:19:02.439Z,7.97
2018-04-07T11:21:31.776Z,11.07
2018-04-07T11:24:00.207Z,9.03
2018-04-07T11:26:28.750Z,19.63
2018-04-07T11:28:57.266Z,10.90
2018-04-07T11:31:27.657Z,7.83
2018-04-07T11:33:56.485Z,7.73
2018-04-07T11:36:24.895Z,12.40
2018-04-07T11:38:53.329Z,7.47
2018-04-07T11:41:22.720Z,14.20
2018-04-07T11:43:51.143Z,6.67
2018-04-07T11:46:19.527Z,6.23
2018-04-07T11:48:48.845Z,7.73
2018-04-07T11:51:17.263Z,6.43
2018-04-07T11:53:45.658Z,10.80
2018-04-07T11:56:14.389Z,7.10
2018-04-07T11:58:42.971Z,17.70
2018-04-07T12:01:11.381Z,9.43
2018-04-07T12:03:40.700Z,6.80
2018-04-07T12:06:09.897Z,9.73
2018-04-07T12:08:38.282Z,9.27
2018-04-07T12:11:07.398Z,8.43
2018-04-07T12:13:35.784Z,9.73
2018-04-07T12:16:04.193Z,12.60
2018-04-07T12:18:32.649Z,6.97
2018-04-07T12:21:01.081Z,9.60
2018-04-07T12:23:29.588Z,7.27
2018-04-07T12:25:58.009Z,7.07
2018-04-07T12:28:26.459Z,6.80
2018-04-07T12:30:54.895Z,8.90
2018-04-07T12:33:23.312Z,5.53
2018-04-07T12:35:51.773Z,10.77
2018-04-07T12:38:20.340Z,6.03
2018-04-07T12:40:48.796Z,9.10
2018-04-07T12:43:17.269Z,7.07
2018-04-07T12:45:45.640Z,7.60
2018-04-07T12:48:14.061Z,17.80
2018-04-07T12:50:42.458Z,9.27
2018-04-07T12:53:10.893Z,6.80
2018-04-07T12:55:39.272Z,14.10
2018-04-07T12:58:07.695Z,5.93
2018-04-07T13:00:36.121Z,4.93
2018-04-07T13:03:04.546Z,8.30
2018-04-07T13:05:32.998Z,8.90
2018-04-07T13:08:01.445Z,11.17
2018-04-07T13:10:29.897Z,5.03
2018-04-07T13:12:58.317Z,5.63
2018-04-07T13:15:26.710Z,6.10
2018-04-07T13:17:55.144Z,7.17
2018-04-07T13:20:23.598Z,4.13
2018-04-07T13:22:52.000Z,6.57
2018-04-07T13:25:20.564Z,4.17
2018-04-07T13:27:48.992Z,6.67
2018-04-07T13:30:17.388Z,5.83
2018-04-07T13:32:45.876Z,4.23
2018-04-07T13:35:14.309Z,5.37
2018-04-07T13:37:42.689Z,10.57
2018-04-07T13:40:11.122Z,5.63
2018-04-07T13:42:39.543Z,4.83
2018-04-07T13:45:07.929Z,8.87
2018-04-07T13:47:36.334Z,6.33
2018-04-07T13:50:04.841Z,6.07
2018-04-07T13:52:33.236Z,6.43
2018-04-07T13:55:01.832Z,3.50
2018-04-07T13:57:30.222Z,7.53
2018-04-07T13:59:58.632Z,4.70
2018-04-07T14:02:27.042Z,8.13
2018-04-07T14:04:55.440Z,6.63
2018-04-07T14:07:23.826Z,6.33
2018-04-07T14:09:52.269Z,5.37
2018-04-07T14:12:21.179Z,4.20
2018-04-07T14:14:49.609Z,9.00
2018-04-07T14:17:18.051Z,4.33
2018-04-07T14:19:46.445Z,7.37
2018-04-07T14:22:14.841Z,6.83
2018-04-07T14:24:43.288Z,6.40
2018-04-07T14:27:11.688Z,6.03
2018-04-07T14:29:40.128Z,4.43
2018-04-07T14:32:08.561Z,4.47
2018-04-07T14:34:36.976Z,4.40
2018-04-07T14:37:05.356Z,3.93
2018-04-07T14:39:33.737Z,4.83
2018-04-07T14:42:02.133Z,6.67
2018-04-07T14:44:30.574Z,5.27
2018-04-07T14:46:59.025Z,10.07
2018-04-07T14:49:27.533Z,5.10
2018-04-07T14:51:55.950Z,10.40
2018-04-07T14:54:24.468Z,4.43
2018-04-07T14:56:52.992Z,5.97
2018-04-07T14:59:21.393Z,3.70
2018-04-07T15:01:49.851Z,6.47
2018-04-07T15:04:18.302Z,7.50
2018-04-07T15:06:46.779Z,9.50
2018-04-07T15:09:15.164Z,8.23
2018-04-07T15:11:43.593Z,5.53
2018-04-07T15:14:12.012Z,5.10
2018-04-07T15:16:40.397Z,8.77
2018-04-07T15:19:08.846Z,8.40
2018-04-07T15:21:37.268Z,14.37
2018-04-07T15:24:06.613Z,10.70
2018-04-07T15:26:35.062Z,8.50
2018-04-07T15:29:03.441Z,22.53
2018-04-07T15:31:31.893Z,8.77
2018-04-07T15:34:00.294Z,11.33
2018-04-07T15:36:28.812Z,11.33
2018-04-07T15:38:57.305Z,11.47
2018-04-07T15:41:25.750Z,10.63
2018-04-07T15:43:54.141Z,7.00
2018-04-07T15:46:22.576Z,11.07
2018-04-07T15:48:50.964Z,9.40
2018-04-07T15:51:19.362Z,6.27
2018-04-07T15:53:47.788Z,10.37
2018-04-07T15:56:16.168Z,7.80
2018-04-07T15:58:44.554Z,7.97
2018-04-07T16:01:12.976Z,7.63
2018-04-07T16:03:41.389Z,5.33
2018-04-07T16:06:09.879Z,8.53
2018-04-07T16:08:38.352Z,8.87
2018-04-07T16:11:06.747Z,5.93
2018-04-07T16:13:35.162Z,12.97
2018-04-07T16:16:03.590Z,6.50
2018-04-07T16:18:32.027Z,4.57
2018-04-07T16:21:00.458Z,4.23
2018-04-07T16:23:29.714Z,4.70
2018-04-07T16:25:58.140Z,5.30
2018-04-07T16:28:26.516Z,4.53
2018-04-07T16:30:54.990Z,11.27
2018-04-07T16:33:23.481Z,5.67
2018-04-07T16:35:52.021Z,12.67
2018-04-07T16:38:20.400Z,8.80
2018-04-07T16:40:48.792Z,7.70
2018-04-07T16:43:17.254Z,5.80
2018-04-07T16:45:45.813Z,8.43
2018-04-07T16:48:14.274Z,7.90
2018-04-07T16:50:42.697Z,6.33
2018-04-07T16:53:11.093Z,10.40
2018-04-07T16:55:39.524Z,7.23
2018-04-07T16:58:07.937Z,14.20
2018-04-07T17:00:36.388Z,9.87
2018-04-07T17:03:04.784Z,8.23
2018-04-07T17:05:33.218Z,6.70
2018-04-07T17:08:01.596Z,9.10
2018-04-07T17:10:30.009Z,10.60
2018-04-07T17:12:58.458Z,7.37
2018-04-07T17:15:26.817Z,11.27
2018-04-07T17:17:55.208Z,9.90
2018-04-07T17:20:23.665Z,10.83
2018-04-07T17:22:52.067Z,13.20
2018-04-07T17:25:20.449Z,6.77
2018-04-07T17:27:48.889Z,8.13
2018-04-07T17:30:17.280Z,12.23
2018-04-07T17:32:45.704Z,8.53
2018-04-07T17:35:14.107Z,10.70
2018-04-07T17:37:42.564Z,12.70
2018-04-07T17:40:11.068Z,15.23
2018-04-07T17:42:39.503Z,11.00
2018-04-07T17:45:07.941Z,11.10
2018-04-07T17:47:36.335Z,9.37
2018-04-07T17:50:04.836Z,14.47
2018-04-07T17:52:33.249Z,13.83
2018-04-07T17:55:01.644Z,27.50
2018-04-07T17:57:30.085Z,36.07
2018-04-07T17:59:58.619Z,25.83
2018-04-07T18:02:27.013Z,21.43
2018-04-07T18:04:55.433Z,23.00
2018-04-07T18:07:24.137Z,30.90
2018-04-07T18:09:52.648Z,34.10
2018-04-07T18:12:21.037Z,42.10
2018-04-07T18:14:49.486Z,35.10
2018-04-07T18:17:17.877Z,47.60
2018-04-07T18:19:46.302Z,48.47
2018-04-07T18:22:14.701Z,45.33
2018-04-07T18:24:43.202Z,40.50
2018-04-07T18:27:11.648Z,43.90
2018-04-07T18:29:40.041Z,40.57
2018-04-07T18:32:08.491Z,34.67
2018-04-07T18:34:36.892Z,32.20
2018-04-07T18:37:05.358Z,35.03
2018-04-07T18:39:33.812Z,34.13
2018-04-07T18:42:02.248Z,37.53
2018-04-07T18:44:30.652Z,30.57
2018-04-07T18:46:59.105Z,25.17
2018-04-07T18:49:27.554Z,34.40
2018-04-07T18:51:55.961Z,28.27
2018-04-07T18:54:24.409Z,26.03
2018-04-07T18:56:52.825Z,35.93
2018-04-07T18:59:21.263Z,47.27
2018-04-07T19:01:49.678Z,42.53
2018-04-07T19:04:18.131Z,41.13
2018-04-07T19:06:46.605Z,40.70
2018-04-07T19:09:15.008Z,37.30
2018-04-07T19:11:43.460Z,37.97
2018-04-07T19:14:11.845Z,41.40
2018-04-07T19:16:40.290Z,40.03
2018-04-07T19:19:08.687Z,36.93
2018-04-07T19:21:37.102Z,33.97
2018-04-07T19:24:05.509Z,36.77
2018-04-07T19:26:33.947Z,37.60
2018-04-07T19:29:02.329Z,33.30
2018-04-07T19:31:30.781Z,39.07
2018-04-07T19:33:59.164Z,39.33
2018-04-07T19:36:27.591Z,37.67
2018-04-07T19:38:56.030Z,41.33
2018-04-07T19:41:24.454Z,40.40
2018-04-07T19:43:52.860Z,41.67
2018-04-07T19:46:21.266Z,36.07
2018-04-07T19:48:49.693Z,44.27
2018-04-07T19:51:18.153Z,37.43
2018-04-07T19:53:46.585Z,37.30
2018-04-07T19:56:14.989Z,40.10
2018-04-07T19:58:43.370Z,40.57
2018-04-07T20:01:11.781Z,39.67
2018-04-07T20:03:40.185Z,40.17
2018-04-07T20:06:08.635Z,39.93
2018-04-07T20:08:37.053Z,38.60
2018-04-07T20:11:05.435Z,44.63
2018-04-07T20:13:33.884Z,39.17
2018-04-07T20:16:02.259Z,42.17
2018-04-07T20:18:30.668Z,42.53
2018-04-07T20:20:59.169Z,39.07
2018-04-07T20:23:27.596Z,34.23
2018-04-07T20:25:56.026Z,43.20
2018-04-07T20:28:24.457Z,42.67
2018-04-07T20:30:52.877Z,44.20
2018-04-07T20:33:21.253Z,43.33
2018-04-07T20:35:49.702Z,55.40
2018-04-07T20:38:18.111Z,41.70
2018-04-07T20:40:55.366Z,45.77
2018-04-07T20:43:23.974Z,153.07
2018-04-07T20:45:52.384Z,81.83
2018-04-07T20:48:20.812Z,105.27
2018-04-07T20:50:49.216Z,66.40
2018-04-07T20:53:17.654Z,53.90
2018-04-07T20:55:46.098Z,100.90
2018-04-07T20:58:14.527Z,75.53
2018-04-07T21:00:42.949Z,60.13
2018-04-07T21:03:11.337Z,43.17
2018-04-07T21:05:39.754Z,38.97
2018-04-07T21:08:08.188Z,35.83
2018-04-07T21:10:36.608Z,36.87
2018-04-07T21:13:05.038Z,40.43
2018-04-07T21:15:33.461Z,35.73
2018-04-07T21:18:01.896Z,43.80
2018-04-07T21:20:30.285Z,48.60
2018-04-07T21:22:58.729Z,49.30
2018-04-07T21:25:27.111Z,40.10
2018-04-07T21:27:55.540Z,36.50
2018-04-07T21:30:23.933Z,35.93
2018-04-07T21:32:52.357Z,30.93
2018-04-07T21:35:20.768Z,28.63
2018-04-07T21:37:49.216Z,34.67
2018-04-07T21:40:17.720Z,23.50
2018-04-07T21:42:46.325Z,29.20
2018-04-07T21:45:14.752Z,21.97
2018-04-07T21:47:43.179Z,26.50
2018-04-07T21:50:11.555Z,21.77
2018-04-07T21:52:40.042Z,22.07
2018-04-07T21:55:08.434Z,25.07
2018-04-07T21:57:36.858Z,20.93
2018-04-07T22:00:05.328Z,25.40
2018-04-07T22:02:33.848Z,26.30
2018-04-07T22:05:02.497Z,21.67
2018-04-07T22:07:30.925Z,25.23
2018-04-07T22:09:59.373Z,25.47
2018-04-07T22:12:27.835Z,24.63
2018-04-07T22:14:56.244Z,23.23
2018-04-07T22:17:24.694Z,28.90
2018-04-07T22:19:53.162Z,35.27
2018-04-07T22:22:21.586Z,37.63
2018-04-07T22:24:49.994Z,35.80
2018-04-07T22:27:18.416Z,39.37
2018-04-07T22:29:46.852Z,37.00
2018-04-07T22:32:15.331Z,38.47
2018-04-07T22:34:43.731Z,35.47
2018-04-07T22:37:12.171Z,34.60
2018-04-07T22:39:40.596Z,22.00
2018-04-07T22:42:09.038Z,32.30
2018-04-07T22:44:37.523Z,28.00
2018-04-07T22:47:05.956Z,28.63
2018-04-07T22:49:34.406Z,29.03
2018-04-07T22:52:02.837Z,23.63
2018-04-07T22:54:31.292Z,18.80
2018-04-07T22:56:59.739Z,24.00
2018-04-07T22:59:28.155Z,23.87
2018-04-07T23:01:56.588Z,24.83
2018-04-07T23:04:25.109Z,26.33
2018-04-07T23:06:53.532Z,26.33
2018-04-07T23:09:21.961Z,25.40
2018-04-07T23:11:50.405Z,35.60
2018-04-07T23:14:18.901Z,32.00
2018-04-07T23:16:47.285Z,32.20
2018-04-07T23:19:15.733Z,24.97
2018-04-07T23:21:44.172Z,23.67
2018-04-07T23:24:12.595Z,24.63
2018-04-07T23:26:41.043Z,22.93
2018-04-07T23:29:09.463Z,25.83
2018-04-07T23:31:37.904Z,24.67
2018-04-07T23:34:06.327Z,24.80
2018-04-07T23:36:34.756Z,25.23
2018-04-07T23:39:03.225Z,22.63
2018-04-07T23:41:31.685Z,26.40
2018-04-07T23:44:00.152Z,24.47
2018-04-07T23:46:28.549Z,26.97
2018-04-07T23:48:57.053Z,27.10
2018-04-07T23:51:25.593Z,27.27
2018-04-07T23:53:54.036Z,25.60
2018-04-07T23:56:22.412Z,29.80
2018-04-07T23:58:50.844Z,24.10
